sensor_id;sensor_type;location;lat;lon;timestamp;P1;durP1;ratioP1;P2;durP2;ratioP2
25667;SDS011;18003;-33.830;151.202;2024-02-15T00:04:30;10.40;;;3.62;;
25667;SDS011;18003;-33.830;151.202;2024-02-15T00:07:09;6.55;;;3.65;;
25667;SDS011;18003;-33.830;151.202;2024-02-15T00:09:39;6.67;;;3.60;;
25667;SDS011;18003;-33.830;151.202;2024-02-15T02:03:08;9.20;;;4.10;;
25667;SDS011;18003;-33.830;151.202;2024-02-15T02:59:44;8.78;;;3.92;;
25667;SDS011;18003;-33.830;151.202;2024-02-15T03:21:15;9.08;;;4.28;;
25667;SDS011;18003;-33.830;151.202;2024-02-15T03:24:00;8.68;;;4.30;;
25667;SDS011;18003;-33.830;151.202;2024-02-15T03:30:31;7.35;;;4.12;;
25667;SDS011;18003;-33.830;151.202;2024-02-15T03:36:43;11.68;;;5.00;;
25667;SDS011;18003;-33.830;151.202;2024-02-15T03:45:52;9.80;;;4.42;;
25667;SDS011;18003;-33.830;151.202;2024-02-15T05:39:43;16.75;;;3.85;;
25667;SDS011;18003;-33.830;151.202;2024-02-15T06:00:28;10.88;;;4.08;;
25667;SDS011;18003;-33.830;151.202;2024-02-15T08:02:49;11.60;;;4.37;;
25667;SDS011;18003;-33.830;151.202;2024-02-15T08:05:20;6.87;;;3.50;;
25667;SDS011;18003;-33.830;151.202;2024-02-15T08:07:49;9.18;;;3.77;;
25667;SDS011;18003;-33.830;151.202;2024-02-15T08:10:20;10.63;;;4.17;;
25667;SDS011;18003;-33.830;151.202;2024-02-15T08:12:50;8.60;;;3.80;;
25667;SDS011;18003;-33.830;151.202;2024-02-15T08:15:20;7.35;;;3.90;;
25667;SDS011;18003;-33.830;151.202;2024-02-15T08:17:50;8.43;;;3.90;;
25667;SDS011;18003;-33.830;151.202;2024-02-15T08:20:21;10.80;;;4.05;;
25667;SDS011;18003;-33.830;151.202;2024-02-15T08:22:51;10.10;;;4.33;;
25667;SDS011;18003;-33.830;151.202;2024-02-15T08:25:21;9.10;;;3.77;;
25667;SDS011;18003;-33.830;151.202;2024-02-15T08:27:51;11.03;;;4.05;;
25667;SDS011;18003;-33.830;151.202;2024-02-15T08:30:33;10.60;;;3.95;;
25667;SDS011;18003;-33.830;151.202;2024-02-15T08:33:03;10.05;;;4.20;;
25667;SDS011;18003;-33.830;151.202;2024-02-15T08:35:33;10.60;;;3.90;;
25667;SDS011;18003;-33.830;151.202;2024-02-15T09:01:03;9.18;;;3.60;;
25667;SDS011;18003;-33.830;151.202;2024-02-15T09:03:34;7.62;;;3.67;;
25667;SDS011;18003;-33.830;151.202;2024-02-15T09:06:04;8.23;;;3.50;;
25667;SDS011;18003;-33.830;151.202;2024-02-15T09:40:43;9.15;;;3.35;;
25667;SDS011;18003;-33.830;151.202;2024-02-15T09:57:30;7.95;;;3.45;;
25667;SDS011;18003;-33.830;151.202;2024-02-15T11:05:50;8.43;;;3.67;;
25667;SDS011;18003;-33.830;151.202;2024-02-15T11:08:22;9.15;;;4.17;;
25667;SDS011;18003;-33.830;151.202;2024-02-15T11:10:52;9.10;;;4.50;;
25667;SDS011;18003;-33.830;151.202;2024-02-15T11:13:24;9.80;;;4.20;;
25667;SDS011;18003;-33.830;151.202;2024-02-15T11:15:55;9.28;;;4.03;;
25667;SDS011;18003;-33.830;151.202;2024-02-15T11:23:45;9.30;;;4.30;;
25667;SDS011;18003;-33.830;151.202;2024-02-15T11:29:17;9.58;;;4.00;;
25667;SDS011;18003;-33.830;151.202;2024-02-15T11:31:55;11.12;;;4.30;;
25667;SDS011;18003;-33.830;151.202;2024-02-15T11:34:43;8.08;;;4.28;;
25667;SDS011;18003;-33.830;151.202;2024-02-15T11:37:57;12.88;;;4.70;;
25667;SDS011;18003;-33.830;151.202;2024-02-15T11:39:58;9.53;;;4.50;;
25667;SDS011;18003;-33.830;151.202;2024-02-15T11:42:31;9.18;;;4.80;;
25667;SDS011;18003;-33.830;151.202;2024-02-15T11:45:03;10.35;;;4.53;;
25667;SDS011;18003;-33.830;151.202;2024-02-15T11:47:39;11.60;;;5.03;;
25667;SDS011;18003;-33.830;151.202;2024-02-15T11:50:12;11.75;;;4.67;;
25667;SDS011;18003;-33.830;151.202;2024-02-15T11:52:46;10.80;;;4.45;;
25667;SDS011;18003;-33.830;151.202;2024-02-15T11:55:18;8.55;;;4.30;;
25667;SDS011;18003;-33.830;151.202;2024-02-15T12:00:26;11.68;;;4.90;;
25667;SDS011;18003;-33.830;151.202;2024-02-15T12:03:13;10.55;;;4.42;;
25667;SDS011;18003;-33.830;151.202;2024-02-15T12:06:00;7.78;;;4.22;;
25667;SDS011;18003;-33.830;151.202;2024-02-15T12:08:47;7.42;;;4.12;;
25667;SDS011;18003;-33.830;151.202;2024-02-15T12:11:36;10.63;;;4.17;;
25667;SDS011;18003;-33.830;151.202;2024-02-15T12:17:05;8.35;;;4.28;;
25667;SDS011;18003;-33.830;151.202;2024-02-15T12:19:53;6.40;;;3.70;;
25667;SDS011;18003;-33.830;151.202;2024-02-15T12:22:24;5.12;;;3.70;;
25667;SDS011;18003;-33.830;151.202;2024-02-15T12:24:58;5.80;;;3.58;;
25667;SDS011;18003;-33.830;151.202;2024-02-15T12:27:29;8.30;;;3.90;;
25667;SDS011;18003;-33.830;151.202;2024-02-15T12:30:00;6.70;;;3.65;;
25667;SDS011;18003;-33.830;151.202;2024-02-15T12:32:31;6.78;;;3.75;;
25667;SDS011;18003;-33.830;151.202;2024-02-15T12:38:01;6.55;;;3.20;;
25667;SDS011;18003;-33.830;151.202;2024-02-15T12:40:33;6.70;;;3.23;;
25667;SDS011;18003;-33.830;151.202;2024-02-15T12:43:06;7.05;;;3.55;;
25667;SDS011;18003;-33.830;151.202;2024-02-15T12:45:37;7.92;;;3.70;;
25667;SDS011;18003;-33.830;151.202;2024-02-15T12:48:08;5.92;;;3.85;;
25667;SDS011;18003;-33.830;151.202;2024-02-15T12:50:38;6.72;;;3.60;;
25667;SDS011;18003;-33.830;151.202;2024-02-15T12:53:08;8.75;;;3.85;;
25667;SDS011;18003;-33.830;151.202;2024-02-15T12:55:38;11.40;;;3.67;;
25667;SDS011;18003;-33.830;151.202;2024-02-15T12:58:15;6.55;;;3.67;;
25667;SDS011;18003;-33.830;151.202;2024-02-15T13:00:46;5.72;;;3.60;;
25667;SDS011;18003;-33.830;151.202;2024-02-15T13:03:15;7.95;;;3.70;;
25667;SDS011;18003;-33.830;151.202;2024-02-15T13:05:46;7.05;;;3.35;;
25667;SDS011;18003;-33.830;151.202;2024-02-15T13:08:15;6.95;;;3.45;;
25667;SDS011;18003;-33.830;151.202;2024-02-15T13:10:46;5.40;;;3.37;;
25667;SDS011;18003;-33.830;151.202;2024-02-15T13:13:16;6.03;;;3.67;;
25667;SDS011;18003;-33.830;151.202;2024-02-15T13:18:35;5.92;;;3.27;;
25667;SDS011;18003;-33.830;151.202;2024-02-15T13:21:05;7.78;;;3.20;;
25667;SDS011;18003;-33.830;151.202;2024-02-15T13:23:36;5.95;;;3.60;;
25667;SDS011;18003;-33.830;151.202;2024-02-15T13:26:06;8.68;;;3.62;;
25667;SDS011;18003;-33.830;151.202;2024-02-15T13:28:37;6.95;;;3.60;;
25667;SDS011;18003;-33.830;151.202;2024-02-15T13:31:06;6.67;;;3.47;;
25667;SDS011;18003;-33.830;151.202;2024-02-15T13:33:37;5.85;;;3.37;;
25667;SDS011;18003;-33.830;151.202;2024-02-15T13:36:07;6.30;;;3.70;;
25667;SDS011;18003;-33.830;151.202;2024-02-15T13:38:37;7.12;;;3.40;;
25667;SDS011;18003;-33.830;151.202;2024-02-15T13:41:07;7.58;;;3.80;;
25667;SDS011;18003;-33.830;151.202;2024-02-15T13:43:37;6.30;;;3.80;;
25667;SDS011;18003;-33.830;151.202;2024-02-15T13:46:08;5.75;;;3.85;;
25667;SDS011;18003;-33.830;151.202;2024-02-15T13:48:37;6.33;;;3.83;;
25667;SDS011;18003;-33.830;151.202;2024-02-15T13:51:07;6.87;;;4.00;;
25667;SDS011;18003;-33.830;151.202;2024-02-15T13:53:37;7.15;;;4.00;;
25667;SDS011;18003;-33.830;151.202;2024-02-15T13:56:07;7.00;;;3.80;;
25667;SDS011;18003;-33.830;151.202;2024-02-15T13:58:36;8.60;;;3.92;;
25667;SDS011;18003;-33.830;151.202;2024-02-15T14:01:06;6.67;;;3.98;;
25667;SDS011;18003;-33.830;151.202;2024-02-15T14:03:37;8.53;;;4.08;;
25667;SDS011;18003;-33.830;151.202;2024-02-15T14:06:07;7.92;;;3.87;;
25667;SDS011;18003;-33.830;151.202;2024-02-15T14:08:36;8.93;;;4.17;;
25667;SDS011;18003;-33.830;151.202;2024-02-15T14:11:06;7.45;;;3.85;;
25667;SDS011;18003;-33.830;151.202;2024-02-15T14:13:37;8.60;;;3.85;;
25667;SDS011;18003;-33.830;151.202;2024-02-15T14:16:07;8.05;;;3.77;;
25667;SDS011;18003;-33.830;151.202;2024-02-15T14:18:36;10.15;;;4.60;;
25667;SDS011;18003;-33.830;151.202;2024-02-15T14:21:06;9.43;;;4.25;;
25667;SDS011;18003;-33.830;151.202;2024-02-15T14:23:37;7.07;;;3.90;;
25667;SDS011;18003;-33.830;151.202;2024-02-15T14:26:07;7.95;;;3.98;;
25667;SDS011;18003;-33.830;151.202;2024-02-15T14:28:36;6.47;;;3.92;;
25667;SDS011;18003;-33.830;151.202;2024-02-15T14:31:17;7.45;;;3.83;;
25667;SDS011;18003;-33.830;151.202;2024-02-15T14:33:57;8.13;;;3.83;;
25667;SDS011;18003;-33.830;151.202;2024-02-15T14:36:27;6.20;;;3.60;;
25667;SDS011;18003;-33.830;151.202;2024-02-15T14:38:56;6.67;;;3.37;;
25667;SDS011;18003;-33.830;151.202;2024-02-15T14:41:26;6.45;;;3.40;;
25667;SDS011;18003;-33.830;151.202;2024-02-15T14:43:56;7.10;;;3.75;;
25667;SDS011;18003;-33.830;151.202;2024-02-15T14:46:26;8.80;;;3.62;;
25667;SDS011;18003;-33.830;151.202;2024-02-15T14:48:56;7.72;;;4.00;;
25667;SDS011;18003;-33.830;151.202;2024-02-15T14:51:25;6.65;;;3.40;;
25667;SDS011;18003;-33.830;151.202;2024-02-15T14:53:55;6.50;;;3.42;;
25667;SDS011;18003;-33.830;151.202;2024-02-15T14:56:25;7.35;;;3.20;;
25667;SDS011;18003;-33.830;151.202;2024-02-15T14:58:55;6.12;;;3.67;;
25667;SDS011;18003;-33.830;151.202;2024-02-15T15:01:25;6.70;;;3.40;;
25667;SDS011;18003;-33.830;151.202;2024-02-15T15:03:55;4.83;;;3.10;;
25667;SDS011;18003;-33.830;151.202;2024-02-15T15:06:26;4.87;;;2.90;;
25667;SDS011;18003;-33.830;151.202;2024-02-15T15:09:13;5.95;;;3.00;;
25667;SDS011;18003;-33.830;151.202;2024-02-15T15:12:00;3.58;;;2.70;;
25667;SDS011;18003;-33.830;151.202;2024-02-15T15:14:47;5.53;;;3.00;;
25667;SDS011;18003;-33.830;151.202;2024-02-15T15:17:16;5.65;;;3.05;;
25667;SDS011;18003;-33.830;151.202;2024-02-15T15:19:47;6.50;;;3.20;;
25667;SDS011;18003;-33.830;151.202;2024-02-15T15:22:17;6.95;;;3.83;;
25667;SDS011;18003;-33.830;151.202;2024-02-15T15:24:47;6.72;;;3.62;;
25667;SDS011;18003;-33.830;151.202;2024-02-15T15:27:17;4.70;;;3.40;;
25667;SDS011;18003;-33.830;151.202;2024-02-15T15:29:47;6.08;;;3.42;;
25667;SDS011;18003;-33.830;151.202;2024-02-15T15:32:16;4.40;;;3.22;;
25667;SDS011;18003;-33.830;151.202;2024-02-15T15:34:47;4.62;;;3.12;;
25667;SDS011;18003;-33.830;151.202;2024-02-15T15:37:17;5.47;;;2.70;;
25667;SDS011;18003;-33.830;151.202;2024-02-15T15:39:48;4.83;;;2.90;;
25667;SDS011;18003;-33.830;151.202;2024-02-15T15:42:17;4.53;;;3.08;;
25667;SDS011;18003;-33.830;151.202;2024-02-15T15:44:47;3.52;;;2.75;;
25667;SDS011;18003;-33.830;151.202;2024-02-15T15:47:17;4.05;;;2.42;;
25667;SDS011;18003;-33.830;151.202;2024-02-15T15:49:48;3.30;;;2.83;;
25667;SDS011;18003;-33.830;151.202;2024-02-15T15:52:18;3.47;;;2.50;;
25667;SDS011;18003;-33.830;151.202;2024-02-15T15:54:48;3.12;;;2.30;;
25667;SDS011;18003;-33.830;151.202;2024-02-15T15:57:18;4.47;;;2.45;;
25667;SDS011;18003;-33.830;151.202;2024-02-15T15:59:48;3.35;;;2.35;;
25667;SDS011;18003;-33.830;151.202;2024-02-15T16:02:18;2.65;;;2.20;;
25667;SDS011;18003;-33.830;151.202;2024-02-15T16:04:48;3.97;;;2.50;;
25667;SDS011;18003;-33.830;151.202;2024-02-15T16:07:19;3.92;;;2.75;;
25667;SDS011;18003;-33.830;151.202;2024-02-15T16:09:49;2.70;;;2.30;;
25667;SDS011;18003;-33.830;151.202;2024-02-15T16:12:19;2.30;;;2.10;;
25667;SDS011;18003;-33.830;151.202;2024-02-15T16:14:49;3.10;;;2.70;;
25667;SDS011;18003;-33.830;151.202;2024-02-15T16:17:21;4.08;;;2.60;;
25667;SDS011;18003;-33.830;151.202;2024-02-15T16:19:51;3.22;;;2.60;;
25667;SDS011;18003;-33.830;151.202;2024-02-15T16:22:23;3.55;;;2.45;;
25667;SDS011;18003;-33.830;151.202;2024-02-15T16:24:56;3.92;;;2.40;;
25667;SDS011;18003;-33.830;151.202;2024-02-15T16:27:29;2.85;;;2.30;;
25667;SDS011;18003;-33.830;151.202;2024-02-15T16:30:02;2.52;;;2.30;;
25667;SDS011;18003;-33.830;151.202;2024-02-15T16:32:37;2.42;;;2.20;;
25667;SDS011;18003;-33.830;151.202;2024-02-15T16:37:42;2.87;;;2.25;;
25667;SDS011;18003;-33.830;151.202;2024-02-15T16:40:18;3.20;;;2.00;;
25667;SDS011;18003;-33.830;151.202;2024-02-15T16:45:47;3.98;;;2.20;;
25667;SDS011;18003;-33.830;151.202;2024-02-15T16:48:19;3.07;;;2.47;;
25667;SDS011;18003;-33.830;151.202;2024-02-15T16:50:51;2.12;;;1.90;;
25667;SDS011;18003;-33.830;151.202;2024-02-15T16:53:23;2.30;;;2.00;;
25667;SDS011;18003;-33.830;151.202;2024-02-15T16:55:54;2.05;;;1.92;;
25667;SDS011;18003;-33.830;151.202;2024-02-15T16:58:27;3.08;;;2.20;;
25667;SDS011;18003;-33.830;151.202;2024-02-15T17:00:59;3.05;;;2.25;;
25667;SDS011;18003;-33.830;151.202;2024-02-15T17:06:27;3.08;;;2.50;;
25667;SDS011;18003;-33.830;151.202;2024-02-15T17:08:57;4.20;;;2.15;;
25667;SDS011;18003;-33.830;151.202;2024-02-15T17:11:31;2.72;;;2.00;;
25667;SDS011;18003;-33.830;151.202;2024-02-15T17:14:03;4.37;;;2.20;;
25667;SDS011;18003;-33.830;151.202;2024-02-15T17:16:34;3.45;;;2.10;;
25667;SDS011;18003;-33.830;151.202;2024-02-15T17:19:11;2.00;;;1.90;;
25667;SDS011;18003;-33.830;151.202;2024-02-15T17:21:42;3.08;;;1.87;;
25667;SDS011;18003;-33.830;151.202;2024-02-15T17:24:14;2.25;;;2.05;;
25667;SDS011;18003;-33.830;151.202;2024-02-15T17:26:49;2.12;;;1.92;;
25667;SDS011;18003;-33.830;151.202;2024-02-15T17:29:25;2.15;;;2.00;;
25667;SDS011;18003;-33.830;151.202;2024-02-15T17:31:55;1.80;;;1.70;;
25667;SDS011;18003;-33.830;151.202;2024-02-15T17:34:30;2.12;;;1.90;;
25667;SDS011;18003;-33.830;151.202;2024-02-15T17:37:00;1.77;;;1.62;;
25667;SDS011;18003;-33.830;151.202;2024-02-15T17:39:30;2.58;;;1.80;;
25667;SDS011;18003;-33.830;151.202;2024-02-15T17:42:00;1.77;;;1.67;;
25667;SDS011;18003;-33.830;151.202;2024-02-15T17:44:29;2.25;;;1.80;;
25667;SDS011;18003;-33.830;151.202;2024-02-15T17:47:00;1.82;;;1.70;;
25667;SDS011;18003;-33.830;151.202;2024-02-15T17:49:29;2.12;;;1.70;;
25667;SDS011;18003;-33.830;151.202;2024-02-15T17:51:59;3.27;;;1.65;;
25667;SDS011;18003;-33.830;151.202;2024-02-15T17:54:29;1.98;;;1.72;;
25667;SDS011;18003;-33.830;151.202;2024-02-15T17:56:59;1.77;;;1.67;;
25667;SDS011;18003;-33.830;151.202;2024-02-15T17:59:28;1.80;;;1.70;;
25667;SDS011;18003;-33.830;151.202;2024-02-15T18:01:58;1.80;;;1.70;;
25667;SDS011;18003;-33.830;151.202;2024-02-15T18:04:28;1.87;;;1.70;;
25667;SDS011;18003;-33.830;151.202;2024-02-15T18:06:58;1.90;;;1.80;;
25667;SDS011;18003;-33.830;151.202;2024-02-15T18:09:28;2.00;;;1.90;;
25667;SDS011;18003;-33.830;151.202;2024-02-15T18:11:58;3.05;;;1.92;;
25667;SDS011;18003;-33.830;151.202;2024-02-15T18:14:29;1.85;;;1.75;;
25667;SDS011;18003;-33.830;151.202;2024-02-15T18:16:59;2.22;;;2.02;;
25667;SDS011;18003;-33.830;151.202;2024-02-15T18:19:29;2.20;;;2.00;;
25667;SDS011;18003;-33.830;151.202;2024-02-15T18:21:59;1.90;;;1.80;;
25667;SDS011;18003;-33.830;151.202;2024-02-15T18:24:29;2.75;;;1.90;;
25667;SDS011;18003;-33.830;151.202;2024-02-15T18:27:02;2.58;;;2.00;;
25667;SDS011;18003;-33.830;151.202;2024-02-15T18:29:32;2.00;;;1.90;;
25667;SDS011;18003;-33.830;151.202;2024-02-15T18:32:02;2.72;;;1.82;;
25667;SDS011;18003;-33.830;151.202;2024-02-15T18:37:21;2.95;;;2.25;;
25667;SDS011;18003;-33.830;151.202;2024-02-15T18:39:51;2.52;;;2.25;;
25667;SDS011;18003;-33.830;151.202;2024-02-15T18:42:20;3.02;;;2.20;;
25667;SDS011;18003;-33.830;151.202;2024-02-15T18:44:51;4.00;;;2.57;;
25667;SDS011;18003;-33.830;151.202;2024-02-15T18:47:21;3.33;;;2.52;;
25667;SDS011;18003;-33.830;151.202;2024-02-15T18:49:51;5.17;;;2.77;;
25667;SDS011;18003;-33.830;151.202;2024-02-15T18:52:20;3.90;;;2.80;;
25667;SDS011;18003;-33.830;151.202;2024-02-15T18:54:50;4.25;;;2.83;;
25667;SDS011;18003;-33.830;151.202;2024-02-15T18:57:21;3.15;;;2.67;;
25667;SDS011;18003;-33.830;151.202;2024-02-15T18:59:52;3.83;;;2.75;;
25667;SDS011;18003;-33.830;151.202;2024-02-15T19:02:22;3.45;;;2.90;;
25667;SDS011;18003;-33.830;151.202;2024-02-15T19:04:53;4.00;;;3.27;;
25667;SDS011;18003;-33.830;151.202;2024-02-15T19:07:23;4.58;;;3.55;;
25667;SDS011;18003;-33.830;151.202;2024-02-15T19:09:52;4.20;;;3.25;;
25667;SDS011;18003;-33.830;151.202;2024-02-15T19:12:22;5.35;;;3.17;;
25667;SDS011;18003;-33.830;151.202;2024-02-15T19:14:52;3.87;;;3.00;;
25667;SDS011;18003;-33.830;151.202;2024-02-15T19:17:23;5.70;;;3.62;;
25667;SDS011;18003;-33.830;151.202;2024-02-15T19:19:53;8.35;;;3.90;;
25667;SDS011;18003;-33.830;151.202;2024-02-15T19:22:22;6.00;;;3.60;;
25667;SDS011;18003;-33.830;151.202;2024-02-15T19:24:53;9.03;;;4.75;;
25667;SDS011;18003;-33.830;151.202;2024-02-15T19:27:23;8.35;;;4.72;;
25667;SDS011;18003;-33.830;151.202;2024-02-15T19:29:53;9.28;;;4.45;;
25667;SDS011;18003;-33.830;151.202;2024-02-15T19:32:22;5.78;;;3.95;;
25667;SDS011;18003;-33.830;151.202;2024-02-15T19:34:53;7.60;;;4.58;;
25667;SDS011;18003;-33.830;151.202;2024-02-15T19:37:23;9.80;;;5.28;;
25667;SDS011;18003;-33.830;151.202;2024-02-15T19:39:54;10.48;;;5.22;;
25667;SDS011;18003;-33.830;151.202;2024-02-15T19:42:24;9.60;;;5.03;;
25667;SDS011;18003;-33.830;151.202;2024-02-15T19:44:53;11.10;;;4.62;;
25667;SDS011;18003;-33.830;151.202;2024-02-15T19:47:23;10.25;;;4.90;;
25667;SDS011;18003;-33.830;151.202;2024-02-15T19:49:55;11.85;;;5.12;;
25667;SDS011;18003;-33.830;151.202;2024-02-15T19:52:42;9.95;;;4.78;;
25667;SDS011;18003;-33.830;151.202;2024-02-15T19:55:12;9.50;;;4.53;;
25667;SDS011;18003;-33.830;151.202;2024-02-15T19:57:42;13.57;;;5.23;;
25667;SDS011;18003;-33.830;151.202;2024-02-15T20:00:12;13.60;;;5.15;;
25667;SDS011;18003;-33.830;151.202;2024-02-15T20:05:30;8.45;;;4.60;;
25667;SDS011;18003;-33.830;151.202;2024-02-15T20:08:00;11.83;;;5.45;;
25667;SDS011;18003;-33.830;151.202;2024-02-15T20:10:31;10.35;;;4.75;;
25667;SDS011;18003;-33.830;151.202;2024-02-15T20:13:02;11.80;;;5.10;;
25667;SDS011;18003;-33.830;151.202;2024-02-15T20:15:31;8.73;;;4.60;;
25667;SDS011;18003;-33.830;151.202;2024-02-15T20:18:01;10.85;;;5.62;;
25667;SDS011;18003;-33.830;151.202;2024-02-15T20:20:32;10.00;;;5.50;;
25667;SDS011;18003;-33.830;151.202;2024-02-15T20:23:02;11.88;;;4.92;;
25667;SDS011;18003;-33.830;151.202;2024-02-15T20:25:32;8.98;;;4.92;;
25667;SDS011;18003;-33.830;151.202;2024-02-15T20:28:02;8.50;;;4.92;;
25667;SDS011;18003;-33.830;151.202;2024-02-15T20:30:38;8.33;;;5.20;;
25667;SDS011;18003;-33.830;151.202;2024-02-15T20:33:09;9.35;;;5.00;;
25667;SDS011;18003;-33.830;151.202;2024-02-15T20:35:45;8.30;;;5.30;;
25667;SDS011;18003;-33.830;151.202;2024-02-15T20:38:16;9.80;;;5.60;;
25667;SDS011;18003;-33.830;151.202;2024-02-15T20:40:47;12.75;;;5.28;;
25667;SDS011;18003;-33.830;151.202;2024-02-15T20:43:21;5.95;;;4.70;;
25667;SDS011;18003;-33.830;151.202;2024-02-15T20:45:51;7.62;;;5.28;;
25667;SDS011;18003;-33.830;151.202;2024-02-15T20:48:21;9.05;;;5.75;;
25667;SDS011;18003;-33.830;151.202;2024-02-15T20:51:09;9.63;;;5.15;;
25667;SDS011;18003;-33.830;151.202;2024-02-15T20:53:39;6.97;;;5.37;;
25667;SDS011;18003;-33.830;151.202;2024-02-15T20:56:11;9.90;;;5.17;;
25667;SDS011;18003;-33.830;151.202;2024-02-15T20:58:39;9.33;;;4.97;;
25667;SDS011;18003;-33.830;151.202;2024-02-15T21:04:11;6.22;;;4.92;;
25667;SDS011;18003;-33.830;151.202;2024-02-15T21:06:41;5.65;;;5.12;;
25667;SDS011;18003;-33.830;151.202;2024-02-15T21:09:10;8.28;;;5.37;;
25667;SDS011;18003;-33.830;151.202;2024-02-15T21:11:40;6.17;;;5.58;;
25667;SDS011;18003;-33.830;151.202;2024-02-15T21:14:13;6.90;;;5.15;;
25667;SDS011;18003;-33.830;151.202;2024-02-15T21:16:43;8.20;;;5.58;;
25667;SDS011;18003;-33.830;151.202;2024-02-15T21:19:14;6.12;;;5.03;;
25667;SDS011;18003;-33.830;151.202;2024-02-15T21:21:44;5.55;;;5.00;;
25667;SDS011;18003;-33.830;151.202;2024-02-15T21:27:03;6.30;;;4.70;;
25667;SDS011;18003;-33.830;151.202;2024-02-15T21:32:02;7.97;;;5.47;;
25667;SDS011;18003;-33.830;151.202;2024-02-15T21:34:32;6.90;;;4.80;;
25667;SDS011;18003;-33.830;151.202;2024-02-15T21:37:02;6.35;;;5.15;;
25667;SDS011;18003;-33.830;151.202;2024-02-15T21:39:33;5.65;;;4.90;;
25667;SDS011;18003;-33.830;151.202;2024-02-15T21:42:10;6.62;;;5.87;;
25667;SDS011;18003;-33.830;151.202;2024-02-15T21:48:20;5.63;;;4.97;;
25667;SDS011;18003;-33.830;151.202;2024-02-15T21:56:05;8.33;;;6.00;;
25667;SDS011;18003;-33.830;151.202;2024-02-15T21:58:35;8.50;;;6.28;;
25667;SDS011;18003;-33.830;151.202;2024-02-15T22:01:08;8.43;;;6.67;;
25667;SDS011;18003;-33.830;151.202;2024-02-15T22:03:41;8.78;;;6.37;;
25667;SDS011;18003;-33.830;151.202;2024-02-15T22:06:12;7.72;;;6.47;;
25667;SDS011;18003;-33.830;151.202;2024-02-15T22:08:42;9.53;;;6.30;;
25667;SDS011;18003;-33.830;151.202;2024-02-15T22:11:12;6.70;;;6.00;;
25667;SDS011;18003;-33.830;151.202;2024-02-15T22:13:42;8.00;;;6.60;;
25667;SDS011;18003;-33.830;151.202;2024-02-15T22:16:14;7.25;;;6.35;;
25667;SDS011;18003;-33.830;151.202;2024-02-15T22:18:45;7.65;;;6.80;;
25667;SDS011;18003;-33.830;151.202;2024-02-15T22:21:15;7.33;;;6.60;;
25667;SDS011;18003;-33.830;151.202;2024-02-15T22:23:44;7.15;;;6.55;;
25667;SDS011;18003;-33.830;151.202;2024-02-15T22:26:14;33.60;;;10.85;;
25667;SDS011;18003;-33.830;151.202;2024-02-15T22:28:45;8.58;;;7.62;;
25667;SDS011;18003;-33.830;151.202;2024-02-15T22:31:15;8.60;;;7.65;;
25667;SDS011;18003;-33.830;151.202;2024-02-15T22:33:49;8.20;;;7.40;;
25667;SDS011;18003;-33.830;151.202;2024-02-15T22:36:32;10.15;;;8.40;;
25667;SDS011;18003;-33.830;151.202;2024-02-15T22:38:59;9.08;;;7.60;;
25667;SDS011;18003;-33.830;151.202;2024-02-15T22:41:30;11.43;;;9.03;;
25667;SDS011;18003;-33.830;151.202;2024-02-15T22:44:00;14.63;;;9.20;;
25667;SDS011;18003;-33.830;151.202;2024-02-15T22:46:30;9.45;;;8.50;;
25667;SDS011;18003;-33.830;151.202;2024-02-15T22:49:00;10.00;;;8.63;;
25667;SDS011;18003;-33.830;151.202;2024-02-15T22:51:30;10.35;;;8.05;;
25667;SDS011;18003;-33.830;151.202;2024-02-15T22:54:00;11.68;;;9.33;;
25667;SDS011;18003;-33.830;151.202;2024-02-15T22:56:31;12.00;;;9.40;;
25667;SDS011;18003;-33.830;151.202;2024-02-15T23:07:08;11.12;;;9.33;;
25667;SDS011;18003;-33.830;151.202;2024-02-15T23:09:37;9.95;;;9.00;;
25667;SDS011;18003;-33.830;151.202;2024-02-15T23:12:07;14.33;;;11.28;;
25667;SDS011;18003;-33.830;151.202;2024-02-15T23:14:37;9.63;;;8.73;;
25667;SDS011;18003;-33.830;151.202;2024-02-15T23:17:07;11.00;;;8.98;;
25667;SDS011;18003;-33.830;151.202;2024-02-15T23:19:37;13.83;;;9.18;;
25667;SDS011;18003;-33.830;151.202;2024-02-15T23:22:06;10.08;;;9.05;;
25667;SDS011;18003;-33.830;151.202;2024-02-15T23:24:36;15.75;;;10.25;;
25667;SDS011;18003;-33.830;151.202;2024-02-15T23:29:54;14.05;;;10.65;;
25667;SDS011;18003;-33.830;151.202;2024-02-15T23:32:24;15.45;;;10.23;;
25667;SDS011;18003;-33.830;151.202;2024-02-15T23:34:54;11.95;;;9.15;;
25667;SDS011;18003;-33.830;151.202;2024-02-15T23:37:24;9.73;;;8.73;;
25667;SDS011;18003;-33.830;151.202;2024-02-15T23:40:11;9.83;;;8.85;;
25667;SDS011;18003;-33.830;151.202;2024-02-15T23:42:45;11.60;;;9.30;;
25667;SDS011;18003;-33.830;151.202;2024-02-15T23:45:15;13.95;;;9.58;;
25667;SDS011;18003;-33.830;151.202;2024-02-15T23:47:45;10.25;;;9.05;;
25667;SDS011;18003;-33.830;151.202;2024-02-15T23:53:37;10.50;;;8.58;;
25667;SDS011;18003;-33.830;151.202;2024-02-15T23:56:11;11.35;;;8.60;;
25667;SDS011;18003;-33.830;151.202;2024-02-15T23:58:41;11.33;;;8.40;;
